Time;durP1;ratioP1;P1;durP2;ratioP2;P2;SDS_P1;SDS_P2;PMS_P1;PMS_P2;Temp;Humidity;BMP_temperature;BMP_pressure;BME280_temperature;BME280_humidity;BME280_pressure;Samples;Min_cycle;Max_cycle;Signal;HPM_P1;HPM_P2
2021/06/03 00:00:27;;;;;;;4.47;4.07;;;19.30;48.20;;;;;;5016173;28;21001;-76
2021/06/03 00:02:53;;;;;;;4.70;3.97;;;19.30;48.50;;;;;;5012576;28;20503;-75
2021/06/03 00:05:22;;;;;;;4.87;4.47;;;19.30;49.40;;;;;;5012705;28;20427;-75
2021/06/03 00:07:50;;;;;;;4.10;3.70;;;19.30;49.30;;;;;;5011899;28;20852;-75
2021/06/03 00:10:23;;;;;;;3.70;3.40;;;19.30;49.50;;;;;;5013033;28;20463;-75
2021/06/03 00:12:49;;;;;;;5.30;3.80;;;19.30;49.30;;;;;;5012365;28;20441;-75
2021/06/03 00:15:16;;;;;;;4.20;3.60;;;19.20;49.70;;;;;;5012652;28;20464;-75
2021/06/03 00:17:43;;;;;;;4.40;4.00;;;19.10;49.80;;;;;;5011674;28;20503;-75
2021/06/03 00:20:12;;;;;;;3.90;3.70;;;19.00;50.20;;;;;;5011734;28;20455;-75
2021/06/03 00:22:38;;;;;;;4.43;4.10;;;19.00;50.80;;;;;;5011958;28;20542;-74
2021/06/03 00:25:08;;;;;;;4.40;4.00;;;19.00;50.80;;;;;;5012481;28;20554;-75
2021/06/03 00:27:34;;;;;;;6.90;4.00;;;19.00;50.80;;;;;;5011895;28;20451;-75
2021/06/03 00:30:01;;;;;;;4.50;3.87;;;19.10;50.90;;;;;;5012142;28;20488;-74
2021/06/03 00:32:28;;;;;;;5.40;3.67;;;19.20;50.70;;;;;;5012578;28;21151;-75
2021/06/03 00:34:54;;;;;;;4.70;4.07;;;19.20;50.70;;;;;;5014000;28;20432;-75
2021/06/03 00:37:21;;;;;;;5.73;3.87;;;19.30;50.40;;;;;;5013413;28;20499;-75
2021/06/03 00:39:47;;;;;;;6.13;3.80;;;19.40;50.20;;;;;;5014558;28;20583;-75
2021/06/03 00:42:15;;;;;;;5.53;3.10;;;19.40;50.00;;;;;;5023160;28;20438;-76
2021/06/03 00:44:41;;;;;;;4.50;3.70;;;19.50;49.80;;;;;;5031178;28;20437;-75
2021/06/03 00:47:09;;;;;;;4.60;3.63;;;19.50;49.90;;;;;;5028888;28;20492;-75
2021/06/03 00:49:36;;;;;;;4.07;3.77;;;19.50;49.70;;;;;;5019352;28;20604;-76
2021/06/03 00:52:03;;;;;;;5.07;3.70;;;19.50;49.70;;;;;;5036324;28;20503;-76
2021/06/03 00:54:29;;;;;;;5.13;3.70;;;19.50;50.10;;;;;;5024506;28;20790;-76
2021/06/03 00:56:55;;;;;;;4.27;3.97;;;19.50;50.40;;;;;;5026872;28;20491;-75
2021/06/03 00:59:23;;;;;;;4.37;4.07;;;19.50;50.40;;;;;;5014140;28;20995;-76
2021/06/03 01:01:50;;;;;;;4.97;3.93;;;19.50;50.70;;;;;;5011624;28;20464;-75
2021/06/03 01:04:20;;;;;;;4.23;3.83;;;19.60;50.90;;;;;;5011375;28;20989;-76
2021/06/03 01:06:47;;;;;;;4.13;3.83;;;19.60;50.80;;;;;;5012114;28;20797;-76
2021/06/03 01:09:19;;;;;;;9.10;3.90;;;19.60;51.10;;;;;;5011277;28;20497;-76
2021/06/03 01:11:51;;;;;;;7.50;3.70;;;19.60;51.40;;;;;;5011527;28;20917;-76
2021/06/03 01:14:21;;;;;;;4.80;4.40;;;19.60;51.60;;;;;;5012242;28;20631;-75
2021/06/03 01:28:11;;;;;;;5.83;4.90;;;19.50;52.90;;;;;;5036624;28;20470;-76
2021/06/03 01:30:42;;;;;;;5.37;4.20;;;19.40;53.30;;;;;;5032817;28;20488;-74
2021/06/03 01:33:11;;;;;;;4.53;4.23;;;19.40;53.60;;;;;;5020048;28;20459;-76
2021/06/03 01:35:40;;;;;;;4.87;4.47;;;19.40;53.80;;;;;;5015906;28;20445;-75
2021/06/03 01:38:10;;;;;;;5.13;3.73;;;19.30;54.30;;;;;;5014358;28;20538;-76
2021/06/03 01:40:39;;;;;;;4.33;3.97;;;19.20;54.90;;;;;;5012451;28;20448;-77
2021/06/03 01:43:07;;;;;;;5.40;4.90;;;19.20;55.40;;;;;;5012466;28;20549;-76
2021/06/03 01:45:35;;;;;;;4.57;4.17;;;19.20;55.80;;;;;;5012697;28;20562;-76
2021/06/03 01:48:03;;;;;;;4.90;4.50;;;19.20;56.00;;;;;;5012514;28;20456;-76
2021/06/03 01:50:30;;;;;;;4.80;4.40;;;19.20;56.30;;;;;;5011904;28;21026;-77
2021/06/03 01:52:57;;;;;;;7.53;4.97;;;19.10;56.50;;;;;;5011799;28;20547;-76
2021/06/03 01:55:24;;;;;;;5.23;4.73;;;19.10;57.50;;;;;;5012061;28;20918;-77
2021/06/03 01:57:51;;;;;;;5.37;4.97;;;19.10;57.10;;;;;;5012142;28;20543;-77
2021/06/03 02:00:21;;;;;;;8.00;4.60;;;19.10;57.30;;;;;;5012112;28;20874;-77
2021/06/03 02:02:49;;;;;;;5.43;4.63;;;19.00;57.70;;;;;;5012489;28;20558;-77
2021/06/03 02:05:17;;;;;;;5.70;5.20;;;19.00;57.70;;;;;;5012199;28;20462;-76
2021/06/03 02:07:43;;;;;;;5.50;5.00;;;18.90;57.60;;;;;;5012336;28;20535;-76
2021/06/03 02:10:12;;;;;;;6.10;5.50;;;18.80;58.10;;;;;;5012597;28;20637;-76
2021/06/03 02:12:46;;;;;;;4.77;4.37;;;18.80;58.40;;;;;;5016959;28;20929;-77
2021/06/03 02:15:14;;;;;;;4.73;4.23;;;18.70;59.30;;;;;;5018256;28;20469;-77
2021/06/03 02:17:47;;;;;;;5.17;4.73;;;18.70;59.50;;;;;;5017403;28;20456;-76
2021/06/03 02:20:17;;;;;;;5.50;5.10;;;18.60;60.00;;;;;;5017612;28;20488;-77
2021/06/03 02:22:49;;;;;;;6.03;4.70;;;18.50;60.70;;;;;;5019508;28;20554;-76
2021/06/03 02:25:16;;;;;;;5.27;4.87;;;18.40;61.20;;;;;;5027113;28;20433;-75
2021/06/03 02:27:44;;;;;;;5.53;5.13;;;18.40;61.70;;;;;;5020576;28;20423;-75
2021/06/03 02:30:12;;;;;;;5.13;4.70;;;18.40;62.00;;;;;;5019321;28;20495;-75
2021/06/03 02:32:39;;;;;;;7.00;5.37;;;18.40;62.30;;;;;;5018820;28;20490;-77
2021/06/03 02:35:10;;;;;;;6.93;6.23;;;18.30;62.50;;;;;;5019758;28;20531;-76
2021/06/03 02:37:39;;;;;;;7.30;5.30;;;18.30;62.90;;;;;;5020128;28;20473;-75
2021/06/03 02:40:09;;;;;;;7.50;5.67;;;18.20;64.10;;;;;;5018808;28;20458;-77
2021/06/03 02:42:38;;;;;;;6.63;6.03;;;18.20;63.90;;;;;;5018171;28;20459;-77
2021/06/03 02:45:05;;;;;;;6.03;5.53;;;18.20;64.70;;;;;;5017358;28;21106;-76
2021/06/03 02:47:32;;;;;;;6.10;5.50;;;18.10;65.30;;;;;;5017709;28;20951;-77
2021/06/03 02:49:58;;;;;;;6.03;5.50;;;18.10;66.00;;;;;;5016718;28;20936;-78
2021/06/03 02:52:24;;;;;;;7.00;6.40;;;18.10;66.00;;;;;;5017850;28;20431;-76
2021/06/03 02:54:52;;;;;;;7.03;6.13;;;18.10;66.00;;;;;;5017525;28;20888;-77
2021/06/03 02:57:18;;;;;;;6.33;5.70;;;18.10;66.60;;;;;;5017792;28;20553;-76
2021/06/03 02:59:45;;;;;;;6.47;5.87;;;18.10;66.00;;;;;;5018042;28;20465;-76
2021/06/03 03:02:11;;;;;;;6.27;5.60;;;18.20;66.10;;;;;;5018157;28;20509;-77
2021/06/03 03:04:38;;;;;;;6.20;5.37;;;18.20;66.10;;;;;;5018096;28;20498;-75
2021/06/03 03:07:04;;;;;;;6.13;5.63;;;18.30;66.20;;;;;;5017190;28;20476;-77
2021/06/03 03:09:31;;;;;;;10.17;7.17;;;18.30;66.20;;;;;;5017062;28;20574;-77
2021/06/03 03:11:59;;;;;;;6.03;5.53;;;18.40;67.00;;;;;;5017630;28;20477;-76
2021/06/03 03:14:25;;;;;;;6.23;5.70;;;18.40;66.30;;;;;;5019153;28;20478;-77
2021/06/03 03:16:51;;;;;;;9.60;6.47;;;18.40;66.30;;;;;;5020956;28;21151;-77
2021/06/03 03:19:18;;;;;;;8.80;5.80;;;18.40;66.30;;;;;;5018149;28;20482;-77
2021/06/03 03:21:44;;;;;;;6.83;6.03;;;18.40;66.30;;;;;;5016288;28;20459;-77
2021/06/03 03:24:10;;;;;;;6.50;5.97;;;18.40;66.30;;;;;;5016647;28;20509;-77
2021/06/03 03:26:37;;;;;;;6.33;5.73;;;18.40;66.30;;;;;;5017923;28;20702;-76
2021/06/03 03:29:05;;;;;;;7.30;6.27;;;18.40;66.30;;;;;;5019213;28;20484;-77
2021/06/03 03:31:31;;;;;;;6.63;6.03;;;18.40;66.30;;;;;;5018381;28;20490;-77
2021/06/03 03:34:02;;;;;;;7.37;6.67;;;18.40;66.30;;;;;;5018697;28;20490;-77
2021/06/03 03:36:29;;;;;;;6.70;6.20;;;18.40;66.30;;;;;;5019394;28;20904;-77
2021/06/03 03:38:56;;;;;;;7.70;6.33;;;18.40;66.30;;;;;;5020629;28;20466;-77
2021/06/03 03:41:22;;;;;;;7.03;6.43;;;18.40;66.30;;;;;;5025914;28;20543;-77
2021/06/03 03:43:49;;;;;;;7.90;5.13;;;18.40;66.30;;;;;;5028626;28;20471;-76
2021/06/03 03:46:17;;;;;;;6.57;6.07;;;18.50;66.40;;;;;;5031686;28;20458;-77
2021/06/03 03:48:44;;;;;;;11.00;6.57;;;18.50;66.30;;;;;;5038408;28;20475;-77
2021/06/03 03:51:12;;;;;;;7.20;6.60;;;18.50;66.40;;;;;;5038233;28;20493;-77
2021/06/03 03:53:39;;;;;;;6.63;6.13;;;18.50;66.40;;;;;;5038065;28;20459;-77
2021/06/03 03:56:06;;;;;;;6.20;5.60;;;18.50;66.10;;;;;;5038216;28;20435;-78
2021/06/03 03:58:36;;;;;;;6.67;6.10;;;18.50;65.50;;;;;;5037741;28;20443;-77
2021/06/03 04:01:03;;;;;;;6.87;6.13;;;18.60;65.00;;;;;;5021194;28;20777;-76
2021/06/03 04:03:31;;;;;;;6.83;6.13;;;18.60;64.90;;;;;;5013795;28;20529;-76
2021/06/03 04:05:58;;;;;;;6.20;5.70;;;18.60;64.90;;;;;;5014129;28;20529;-76
2021/06/03 04:08:24;;;;;;;6.70;6.10;;;18.60;65.20;;;;;;5013975;28;20458;-77
2021/06/03 04:10:51;;;;;;;6.23;5.73;;;18.60;65.00;;;;;;5014487;28;20469;-77
2021/06/03 04:13:17;;;;;;;7.43;6.63;;;18.60;65.40;;;;;;5012647;28;20485;-76
2021/06/03 04:15:44;;;;;;;7.50;6.90;;;18.60;65.40;;;;;;5013107;28;20546;-76
2021/06/03 04:18:10;;;;;;;6.50;5.90;;;18.70;65.10;;;;;;5012983;28;20437;-76
2021/06/03 04:20:38;;;;;;;6.63;6.00;;;18.70;65.00;;;;;;5012701;28;20772;-76
2021/06/03 04:23:05;;;;;;;6.33;5.57;;;18.70;65.00;;;;;;5012774;28;20471;-76
2021/06/03 04:25:31;;;;;;;7.60;6.07;;;18.70;64.90;;;;;;5013138;28;20516;-76
2021/06/03 04:27:58;;;;;;;7.03;6.43;;;18.70;64.80;;;;;;5016327;28;20546;-77
2021/06/03 04:30:27;;;;;;;6.93;6.23;;;18.70;65.40;;;;;;5016848;28;20537;-77
2021/06/03 04:32:54;;;;;;;7.30;6.60;;;18.70;64.60;;;;;;5013696;28;20567;-76
2021/06/03 04:35:22;;;;;;;8.70;5.80;;;18.70;65.00;;;;;;5014660;28;20487;-75
2021/06/03 04:37:52;;;;;;;6.37;5.80;;;18.70;65.00;;;;;;5021736;28;20957;-76
2021/06/03 04:40:21;;;;;;;7.13;6.53;;;18.80;64.90;;;;;;5014461;28;20458;-76
2021/06/03 04:42:49;;;;;;;7.10;6.40;;;18.80;64.60;;;;;;5013811;28;20479;-77
2021/06/03 04:45:17;;;;;;;7.10;6.50;;;18.90;64.50;;;;;;5014451;28;20550;-76
2021/06/03 04:47:47;;;;;;;8.20;6.90;;;18.80;64.50;;;;;;5014236;28;20547;-76
2021/06/03 04:50:15;;;;;;;8.23;5.40;;;18.80;64.90;;;;;;5013105;28;20627;-76
2021/06/03 04:52:42;;;;;;;6.63;6.00;;;18.90;64.60;;;;;;5012819;28;20455;-77
2021/06/03 04:55:14;;;;;;;7.07;6.37;;;18.90;64.30;;;;;;5013338;28;20547;-76
2021/06/03 04:57:42;;;;;;;6.37;5.90;;;19.00;64.00;;;;;;5013533;28;20491;-76
2021/06/03 05:00:11;;;;;;;6.80;6.20;;;19.00;63.70;;;;;;5014056;28;20543;-76
2021/06/03 05:02:38;;;;;;;6.57;5.80;;;19.00;63.60;;;;;;5017884;28;20493;-76
2021/06/03 05:05:05;;;;;;;7.40;6.43;;;19.10;63.20;;;;;;5014836;28;20990;-76
2021/06/03 05:07:32;;;;;;;6.47;5.87;;;19.30;62.40;;;;;;5013612;28;20454;-77
2021/06/03 05:09:58;;;;;;;6.70;6.20;;;19.30;61.80;;;;;;5013165;28;20846;-77
2021/06/03 05:12:26;;;;;;;6.80;6.27;;;19.50;61.10;;;;;;5012874;28;20511;-76
2021/06/03 05:14:52;;;;;;;7.17;6.57;;;19.60;59.80;;;;;;5012178;28;20451;-76
2021/06/03 05:17:19;;;;;;;6.23;5.63;;;19.70;59.50;;;;;;5015047;28;20548;-76
2021/06/03 05:19:45;;;;;;;6.30;5.80;;;19.90;58.50;;;;;;5014991;28;20572;-76
2021/06/03 05:22:11;;;;;;;7.30;6.60;;;20.00;58.60;;;;;;5015107;28;20544;-76
2021/06/03 05:24:38;;;;;;;8.57;6.43;;;20.00;58.60;;;;;;5012598;28;20588;-76
2021/06/03 05:27:05;;;;;;;6.63;6.00;;;20.10;58.20;;;;;;5013559;28;20917;-77
2021/06/03 05:29:33;;;;;;;6.73;6.07;;;20.10;57.20;;;;;;5015275;28;20563;-75
2021/06/03 05:32:00;;;;;;;6.47;5.87;;;20.20;56.50;;;;;;5017623;28;20468;-76
2021/06/03 05:34:27;;;;;;;6.77;6.00;;;20.20;56.80;;;;;;5014270;28;20535;-76
2021/06/03 05:36:53;;;;;;;9.97;5.80;;;20.40;56.30;;;;;;5020727;28;20478;-76
2021/06/03 05:39:20;;;;;;;7.23;6.63;;;20.50;55.20;;;;;;5037101;28;20436;-76
2021/06/03 05:41:47;;;;;;;5.57;5.07;;;20.80;54.70;;;;;;5036589;28;20436;-77
2021/06/03 05:44:14;;;;;;;5.40;4.90;;;21.40;52.60;;;;;;5036550;28;20470;-76
2021/06/03 05:46:42;;;;;;;5.80;5.30;;;22.50;48.30;;;;;;5039429;28;20410;-76
2021/06/03 05:49:10;;;;;;;5.40;4.73;;;23.80;44.70;;;;;;5040449;28;20447;-77
2021/06/03 05:51:37;;;;;;;5.53;4.93;;;24.30;41.80;;;;;;5040496;28;20453;-76
2021/06/03 05:54:04;;;;;;;5.60;4.43;;;24.30;41.20;;;;;;5040041;28;20488;-77
2021/06/03 05:56:31;;;;;;;7.47;4.80;;;24.00;41.70;;;;;;5024814;28;20941;-76
2021/06/03 05:58:58;;;;;;;4.73;4.40;;;24.10;42.00;;;;;;5018613;28;20548;-76
2021/06/03 06:01:25;;;;;;;4.87;4.40;;;24.90;40.30;;;;;;5025262;28;20496;-77
2021/06/03 06:03:58;;;;;;;8.90;4.40;;;25.90;38.20;;;;;;5039304;28;20504;-76
2021/06/03 06:06:24;;;;;;;5.87;4.80;;;26.30;35.90;;;;;;5029527;28;20460;-77
2021/06/03 06:08:52;;;;;;;6.00;4.77;;;26.60;34.20;;;;;;5039086;28;20524;-76
2021/06/03 06:11:19;;;;;;;9.63;4.70;;;26.20;35.60;;;;;;5022856;28;20509;-76
2021/06/03 06:13:46;;;;;;;5.53;5.13;;;25.60;36.50;;;;;;5015516;28;20521;-75
2021/06/03 06:16:13;;;;;;;5.60;5.10;;;25.10;37.50;;;;;;5017760;28;20942;-75
2021/06/03 06:18:40;;;;;;;5.20;4.70;;;24.50;39.60;;;;;;5024290;28;20486;-77
2021/06/03 06:21:09;;;;;;;5.60;5.10;;;24.20;40.10;;;;;;5023766;28;20445;-76
2021/06/03 06:23:36;;;;;;;6.10;5.40;;;24.00;40.50;;;;;;5016247;28;20481;-76
2021/06/03 06:26:03;;;;;;;5.30;4.90;;;23.70;42.00;;;;;;5015028;28;20462;-75
2021/06/03 06:28:30;;;;;;;5.80;5.30;;;23.50;42.10;;;;;;5015141;28;20538;-76
2021/06/03 06:30:57;;;;;;;4.93;4.53;;;23.50;42.10;;;;;;5014925;28;20496;-75
2021/06/03 06:33:24;;;;;;;6.57;4.63;;;23.50;42.80;;;;;;5017206;28;20498;-76
2021/06/03 06:35:51;;;;;;;5.30;4.60;;;23.50;42.10;;;;;;5016228;28;20482;-75
2021/06/03 06:38:22;;;;;;;4.90;4.50;;;23.50;42.10;;;;;;5014920;28;20501;-74
2021/06/03 06:40:49;;;;;;;5.20;4.70;;;23.50;42.10;;;;;;5014688;28;20444;-74
2021/06/03 06:43:16;;;;;;;5.13;4.73;;;23.60;42.20;;;;;;5014603;28;20554;-75
2021/06/03 06:45:46;;;;;;;5.03;4.53;;;23.30;41.90;;;;;;5014744;28;20512;-75
2021/06/03 06:48:14;;;;;;;5.20;4.77;;;23.50;42.10;;;;;;5014879;28;20544;-75
2021/06/03 06:50:41;;;;;;;5.17;4.77;;;23.60;42.20;;;;;;5022628;28;20555;-75
2021/06/03 06:53:09;;;;;;;6.33;5.17;;;23.70;42.30;;;;;;5014576;28;20477;-76
2021/06/03 06:55:37;;;;;;;5.20;4.70;;;23.30;42.20;;;;;;5014558;28;20551;-75
2021/06/03 06:58:05;;;;;;;5.33;4.90;;;23.40;42.50;;;;;;5014722;28;20962;-76
2021/06/03 07:00:35;;;;;;;6.80;4.70;;;23.50;42.10;;;;;;5014461;28;20457;-75
2021/06/03 07:03:01;;;;;;;5.27;4.80;;;23.80;42.30;;;;;;5014420;28;20426;-75
2021/06/03 07:05:28;;;;;;;6.23;4.67;;;23.60;42.20;;;;;;5014582;28;20434;-76
2021/06/03 07:07:55;;;;;;;4.47;4.17;;;23.50;42.40;;;;;;5014225;28;20557;-75
2021/06/03 07:10:22;;;;;;;5.20;4.80;;;23.90;42.50;;;;;;5014661;28;20506;-76
2021/06/03 07:12:51;;;;;;;5.37;4.87;;;24.10;42.30;;;;;;5014191;28;20540;-75
2021/06/03 07:15:17;;;;;;;4.70;4.30;;;24.10;41.90;;;;;;5014616;28;20487;-76
2021/06/03 07:17:44;;;;;;;4.37;4.07;;;24.40;41.20;;;;;;5014668;28;20553;-76
2021/06/03 07:20:13;;;;;;;4.97;4.57;;;24.80;40.20;;;;;;5017707;28;20605;-76
2021/06/03 07:22:40;;;;;;;5.07;4.63;;;25.10;39.40;;;;;;5017512;28;20462;-76
2021/06/03 07:25:08;;;;;;;7.00;4.20;;;25.10;39.20;;;;;;5014229;28;21017;-76
2021/06/03 07:27:35;;;;;;;4.63;4.27;;;25.10;39.40;;;;;;5014279;28;20597;-76
2021/06/03 07:30:04;;;;;;;4.17;3.43;;;25.30;38.40;;;;;;5013512;28;20551;-75
2021/06/03 07:32:30;;;;;;;5.20;3.70;;;25.60;38.00;;;;;;5014165;28;20469;-75
2021/06/03 07:34:57;;;;;;;3.67;3.27;;;25.80;37.30;;;;;;5014101;28;20914;-76
2021/06/03 07:37:24;;;;;;;4.10;3.80;;;26.10;36.50;;;;;;5038770;23;20519;-78
2021/06/03 07:39:51;;;;;;;5.70;4.00;;;26.10;36.50;;;;;;5019815;28;20484;-78
2021/06/03 07:42:18;;;;;;;7.53;3.90;;;25.90;36.10;;;;;;5023881;28;20490;-78
2021/06/03 07:44:46;;;;;;;6.03;4.23;;;25.70;37.50;;;;;;5022030;28;20956;-78
2021/06/03 07:47:15;;;;;;;5.70;3.63;;;25.60;37.80;;;;;;5022268;28;20479;-77
2021/06/03 07:49:42;;;;;;;4.07;3.67;;;25.60;38.20;;;;;;5020319;28;20501;-78
2021/06/03 07:52:08;;;;;;;5.10;4.17;;;25.80;37.00;;;;;;5019667;28;20969;-78
2021/06/03 07:54:36;;;;;;;4.30;3.73;;;26.00;36.50;;;;;;5027886;28;20490;-78
2021/06/03 07:57:05;;;;;;;3.77;3.47;;;26.10;36.10;;;;;;5028020;28;20482;-78
2021/06/03 07:59:31;;;;;;;3.80;3.50;;;26.30;34.80;;;;;;5032199;28;20452;-78
2021/06/03 08:01:58;;;;;;;4.10;3.70;;;26.30;35.00;;;;;;5037161;28;20457;-79
2021/06/03 08:04:26;;;;;;;3.40;3.20;;;26.60;34.20;;;;;;5032827;28;20457;-79
2021/06/03 08:06:52;;;;;;;3.57;3.27;;;26.70;34.40;;;;;;5032161;28;20485;-78
2021/06/03 08:09:19;;;;;;;3.87;3.57;;;26.10;34.60;;;;;;5030848;28;20452;-79
2021/06/03 08:11:46;;;;;;;3.73;3.43;;;26.50;34.20;;;;;;5032435;28;20503;-78
2021/06/03 08:14:12;;;;;;;3.50;3.30;;;26.70;34.30;;;;;;5033884;28;20451;-81
2021/06/03 08:16:39;;;;;;;4.43;3.47;;;26.10;35.00;;;;;;5027058;28;20455;-79
2021/06/03 08:19:06;;;;;;;5.10;3.70;;;26.20;34.80;;;;;;5027475;28;20460;-79
2021/06/03 08:21:35;;;;;;;4.27;3.83;;;26.40;34.10;;;;;;5024242;28;20451;-78
2021/06/03 08:24:01;;;;;;;4.17;3.77;;;26.20;35.40;;;;;;5022637;28;20453;-79
2021/06/03 08:26:28;;;;;;;3.33;3.13;;;26.30;34.20;;;;;;5028551;28;20527;-78
2021/06/03 08:28:56;;;;;;;3.27;3.07;;;26.40;34.20;;;;;;5034190;28;20490;-78
2021/06/03 08:31:23;;;;;;;3.77;3.47;;;26.20;34.60;;;;;;5033017;28;20495;-78
2021/06/03 08:33:49;;;;;;;11.17;3.67;;;25.20;37.40;;;;;;5030548;28;20458;-79
2021/06/03 08:36:16;;;;;;;5.27;4.10;;;25.40;37.50;;;;;;5028239;28;20463;-78
2021/06/03 08:38:44;;;;;;;6.60;3.27;;;25.70;36.70;;;;;;5032809;28;20464;-78
2021/06/03 08:41:11;;;;;;;3.20;3.00;;;25.60;36.50;;;;;;5028692;28;20934;-78
2021/06/03 08:43:37;;;;;;;4.10;3.37;;;25.90;35.60;;;;;;5022064;28;20465;-78
2021/06/03 08:46:04;;;;;;;4.10;3.80;;;26.10;35.80;;;;;;5026085;28;20466;-79
2021/06/03 08:48:31;;;;;;;5.00;3.30;;;26.10;35.20;;;;;;5028274;28;20533;-78
2021/06/03 08:51:01;;;;;;;4.37;3.63;;;26.30;34.60;;;;;;5027566;28;20493;-78
2021/06/03 08:53:27;;;;;;;5.00;3.43;;;26.20;35.00;;;;;;5030428;28;20457;-79
2021/06/03 08:56:15;;;;;;;3.73;3.50;;;26.30;34.00;;;;;;5029896;28;20509;-79
2021/06/03 08:58:42;;;;;;;5.90;3.50;;;26.00;34.50;;;;;;5022689;28;20486;-79
2021/06/03 09:01:09;;;;;;;3.13;2.93;;;25.90;35.20;;;;;;5023929;28;20891;-77
2021/06/03 09:03:36;;;;;;;3.40;3.10;;;25.90;34.80;;;;;;5022960;28;20454;-80
2021/06/03 09:06:03;;;;;;;4.40;3.00;;;25.70;35.70;;;;;;5022946;28;20453;-80
2021/06/03 09:08:31;;;;;;;2.90;2.70;;;25.80;35.70;;;;;;5023764;28;20490;-78
2021/06/03 09:11:01;;;;;;;2.80;2.60;;;26.10;34.10;;;;;;5017747;28;20999;-78
2021/06/03 09:13:30;;;;;;;3.57;3.20;;;26.60;34.20;;;;;;5017781;28;20546;-79
2021/06/03 09:15:59;;;;;;;3.93;3.63;;;26.90;33.50;;;;;;5019194;28;20473;-79
2021/06/03 09:18:31;;;;;;;3.93;2.53;;;27.10;33.20;;;;;;5025422;28;20486;-80
2021/06/03 09:21:07;;;;;;;3.20;2.80;;;27.10;32.60;;;;;;5036767;28;20526;-77
2021/06/03 09:23:35;;;;;;;3.40;3.10;;;26.80;33.60;;;;;;5039201;28;20445;-78
2021/06/03 09:26:08;;;;;;;4.70;2.70;;;26.40;34.10;;;;;;5036932;28;20438;-79
2021/06/03 09:28:37;;;;;;;3.47;3.23;;;26.20;34.00;;;;;;5039604;28;20505;-80
2021/06/03 09:31:13;;;;;;;2.90;2.60;;;26.00;33.80;;;;;;5035831;28;20496;-78
2021/06/03 09:33:43;;;;;;;2.80;2.60;;;26.30;34.00;;;;;;5032534;28;20435;-79
2021/06/03 09:36:11;;;;;;;3.53;3.20;;;26.70;33.50;;;;;;5034547;28;20486;-78
2021/06/03 09:39:05;;;;;;;3.63;3.30;;;26.90;33.00;;;;;;5024332;28;20490;-78
2021/06/03 09:41:35;;;;;;;2.90;2.70;;;27.00;32.80;;;;;;5023680;28;20454;-79
2021/06/03 09:44:11;;;;;;;4.23;3.00;;;26.90;32.60;;;;;;5028841;28;20447;-79
2021/06/03 09:46:40;;;;;;;4.70;3.47;;;26.90;32.50;;;;;;5029564;28;20452;-79
2021/06/03 09:49:07;;;;;;;3.20;3.00;;;26.60;34.10;;;;;;5031589;28;20471;-79
2021/06/03 09:51:37;;;;;;;3.47;3.17;;;26.90;33.30;;;;;;5023903;28;20511;-79
2021/06/03 09:54:06;;;;;;;4.00;2.83;;;27.20;32.50;;;;;;5027170;28;20802;-79
2021/06/03 09:56:35;;;;;;;3.93;3.00;;;27.30;32.00;;;;;;5023540;28;20434;-78
2021/06/03 09:59:04;;;;;;;3.27;3.03;;;27.50;31.10;;;;;;5021661;28;20537;-79
2021/06/03 10:01:46;;;;;;;3.83;2.70;;;27.50;30.60;;;;;;5024774;28;20491;-78
2021/06/03 10:04:14;;;;;;;3.13;2.93;;;27.50;30.20;;;;;;5026746;28;20822;-80
2021/06/03 10:07:14;;;;;;;4.13;3.20;;;27.00;31.20;;;;;;5021426;28;20451;-79
2021/06/03 10:09:55;;;;;;;7.90;3.30;;;27.00;32.10;;;;;;4987071;28;20491;-80
2021/06/03 10:12:42;;;;;;;8.53;3.10;;;27.10;31.60;;;;;;5019786;28;20965;-79
2021/06/03 10:15:15;;;;;;;3.53;3.20;;;26.80;32.10;;;;;;5018480;28;20481;-78
2021/06/03 10:17:49;;;;;;;3.40;2.80;;;26.40;33.00;;;;;;5018573;28;20474;-79
2021/06/03 10:20:18;;;;;;;5.27;3.27;;;26.60;32.90;;;;;;5021390;28;20436;-79
2021/06/03 10:22:47;;;;;;;3.03;2.73;;;26.90;32.50;;;;;;5024067;28;20979;-80
2021/06/03 10:25:15;;;;;;;6.17;3.07;;;27.20;31.80;;;;;;5022504;28;20462;-79
2021/06/03 10:27:45;;;;;;;3.73;3.03;;;27.40;31.50;;;;;;5021719;28;20509;-78
2021/06/03 10:30:15;;;;;;;5.40;2.83;;;27.20;30.60;;;;;;5019960;28;20583;-79
2021/06/03 10:35:30;;;;;;;3.20;2.90;;;27.10;31.50;;;;;;5015101;28;20806;-79
2021/06/03 10:37:58;;;;;;;3.50;3.20;;;27.10;31.70;;;;;;5221509;22;20532;-78
2021/06/03 10:40:26;;;;;;;4.10;3.20;;;27.30;31.10;;;;;;5029001;28;20447;-79
2021/06/03 10:42:55;;;;;;;4.80;3.33;;;27.60;30.10;;;;;;5026529;28;20447;-79
2021/06/03 10:45:23;;;;;;;4.30;3.33;;;27.60;30.00;;;;;;5025575;28;20447;-79
2021/06/03 10:47:50;;;;;;;5.63;3.77;;;27.50;30.50;;;;;;5034694;28;20470;-80
2021/06/03 10:50:19;;;;;;;3.20;2.90;;;27.70;30.60;;;;;;5024471;28;20500;-80
2021/06/03 10:52:47;;;;;;;5.97;3.03;;;28.00;30.00;;;;;;5023305;28;20466;-80
2021/06/03 10:55:25;;;;;;;3.63;3.33;;;28.30;29.20;;;;;;5024386;28;20437;-79
2021/06/03 10:57:55;;;;;;;3.00;2.80;;;28.60;28.90;;;;;;5035752;28;20479;-79
2021/06/03 11:00:26;;;;;;;6.50;3.33;;;28.30;29.20;;;;;;5028231;28;20444;-79
2021/06/03 11:02:54;;;;;;;6.33;3.03;;;27.90;30.00;;;;;;5028825;28;20937;-79
2021/06/03 11:05:26;;;;;;;4.77;3.00;;;27.80;29.90;;;;;;5030184;28;20463;-78
2021/06/03 11:07:53;;;;;;;3.73;2.93;;;27.60;30.00;;;;;;5030633;28;20456;-78
2021/06/03 11:10:25;;;;;;;5.73;3.43;;;27.40;30.90;;;;;;5028386;28;20513;-78
2021/06/03 11:13:12;;;;;;;4.23;2.80;;;27.40;31.10;;;;;;5025728;28;20445;-79
2021/06/03 11:16:04;;;;;;;3.63;3.30;;;27.50;30.80;;;;;;5022772;28;20494;-79
2021/06/03 11:19:07;;;;;;;6.17;2.70;;;27.20;32.40;;;;;;5026039;28;20467;-79
2021/06/03 11:21:51;;;;;;;3.60;3.30;;;27.70;30.50;;;;;;4994214;28;20507;-80
2021/06/03 11:24:41;;;;;;;6.80;3.10;;;28.00;29.90;;;;;;5023150;28;20713;-80
2021/06/03 11:27:09;;;;;;;3.23;3.03;;;28.00;30.00;;;;;;5023970;28;20512;-79
2021/06/03 11:29:40;;;;;;;3.03;2.80;;;27.90;30.10;;;;;;5027448;28;20460;-80
2021/06/03 11:32:25;;;;;;;3.30;3.10;;;28.30;29.50;;;;;;5027794;28;20870;-80
2021/06/03 11:34:54;;;;;;;2.70;2.50;;;28.60;29.10;;;;;;5026485;28;20475;-79
2021/06/03 11:37:23;;;;;;;3.80;2.97;;;28.80;28.90;;;;;;5019329;28;20900;-79
2021/06/03 11:39:52;;;;;;;3.50;2.70;;;29.10;28.20;;;;;;5020834;28;20452;-80
2021/06/03 11:42:25;;;;;;;3.00;2.77;;;29.70;26.90;;;;;;5022727;28;20451;-80
2021/06/03 11:45:16;;;;;;;3.80;2.80;;;29.80;26.90;;;;;;5023351;28;20470;-81
2021/06/03 11:48:05;;;;;;;3.60;3.30;;;29.50;26.70;;;;;;5023418;28;20493;-79
2021/06/03 11:51:04;;;;;;;3.47;3.03;;;29.10;28.10;;;;;;5026407;28;20512;-78
2021/06/03 11:53:33;;;;;;;4.00;3.20;;;28.70;28.70;;;;;;5029381;28;20528;-78
2021/06/03 11:56:14;;;;;;;4.70;3.30;;;28.40;29.40;;;;;;5025890;28;20537;-79
2021/06/03 11:58:53;;;;;;;5.43;3.50;;;28.50;29.20;;;;;;5025276;28;20563;-79
2021/06/03 12:01:38;;;;;;;3.90;3.47;;;28.60;28.90;;;;;;5027341;28;20925;-78
2021/06/03 12:04:19;;;;;;;3.63;3.33;;;28.10;30.00;;;;;;5025872;28;20465;-79
2021/06/03 12:06:48;;;;;;;6.50;3.43;;;27.70;31.60;;;;;;5026641;28;20485;-79
2021/06/03 12:09:28;;;;;;;5.37;3.30;;;28.60;29.80;;;;;;5026467;28;20439;-79
2021/06/03 12:11:56;;;;;;;4.37;3.23;;;29.00;29.10;;;;;;5025518;28;20486;-79
2021/06/03 12:14:25;;;;;;;4.00;2.83;;;29.10;28.90;;;;;;5025560;28;20520;-79
2021/06/03 12:16:55;;;;;;;3.50;3.13;;;29.30;28.70;;;;;;5024625;28;20478;-77
2021/06/03 12:19:23;;;;;;;7.00;2.80;;;29.50;28.30;;;;;;5023399;28;20464;-79
2021/06/03 12:21:53;;;;;;;4.20;3.23;;;29.50;27.80;;;;;;5018877;28;20447;-79
2021/06/03 12:24:30;;;;;;;3.60;2.80;;;29.50;26.80;;;;;;5018017;28;20558;-79
2021/06/03 12:26:57;;;;;;;3.17;2.87;;;29.30;26.60;;;;;;5021455;28;20470;-79
2021/06/03 12:29:25;;;;;;;4.83;2.97;;;29.20;27.70;;;;;;5021768;28;20891;-80
2021/06/03 12:31:53;;;;;;;2.63;2.43;;;29.10;27.60;;;;;;5023664;28;20511;-80
2021/06/03 12:34:20;;;;;;;2.70;2.37;;;28.80;28.00;;;;;;5021996;28;20461;-79
2021/06/03 12:36:47;;;;;;;4.03;2.30;;;29.30;26.60;;;;;;5018346;28;20511;-79
2021/06/03 12:39:13;;;;;;;2.93;2.53;;;29.80;26.90;;;;;;5019314;28;20429;-80
2021/06/03 12:41:42;;;;;;;5.23;2.77;;;29.50;26.70;;;;;;5021336;28;20472;-80
2021/06/03 12:44:11;;;;;;;4.60;3.20;;;29.60;26.80;;;;;;5022454;28;20467;-81
2021/06/03 12:46:40;;;;;;;2.50;2.30;;;29.40;26.70;;;;;;5026890;28;20424;-80
2021/06/03 12:49:10;;;;;;;4.80;2.80;;;29.30;27.00;;;;;;5021492;28;20449;-79
2021/06/03 12:51:45;;;;;;;2.70;2.40;;;29.20;26.60;;;;;;5021066;28;20525;-80
2021/06/03 12:54:12;;;;;;;2.97;2.70;;;29.20;27.10;;;;;;5023078;28;20502;-80
2021/06/03 12:56:39;;;;;;;3.90;2.80;;;29.20;26.90;;;;;;5024075;28;20538;-80
2021/06/03 12:59:19;;;;;;;3.50;3.27;;;29.10;28.00;;;;;;5025033;28;20451;-80
2021/06/03 13:02:01;;;;;;;3.90;3.50;;;29.50;26.70;;;;;;5020691;28;20916;-79
2021/06/03 13:04:36;;;;;;;3.77;3.47;;;29.80;26.90;;;;;;5018291;28;20471;-80
2021/06/03 13:07:04;;;;;;;3.30;2.90;;;29.30;27.20;;;;;;5018639;28;20533;-80
2021/06/03 13:09:32;;;;;;;3.10;2.63;;;29.40;26.70;;;;;;5019750;28;20973;-79